sensor_id;sensor_type;location;lat;lon;timestamp;P1;durP1;ratioP1;P2;durP2;ratioP2
85133;SDS011;75590;42.690;23.356;2024-01-30T00:02:23;3.60;;;2.95;;
85133;SDS011;75590;42.690;23.356;2024-01-30T00:04:48;6.30;;;3.45;;
85133;SDS011;75590;42.690;23.356;2024-01-30T00:07:14;6.25;;;3.65;;
85133;SDS011;75590;42.690;23.356;2024-01-30T00:09:40;5.20;;;3.50;;
85133;SDS011;75590;42.690;23.356;2024-01-30T00:12:06;5.72;;;3.85;;
85133;SDS011;75590;42.690;23.356;2024-01-30T00:14:31;6.82;;;3.53;;
85133;SDS011;75590;42.690;23.356;2024-01-30T00:16:57;4.15;;;2.17;;
85133;SDS011;75590;42.690;23.356;2024-01-30T00:19:22;10.30;;;3.47;;
85133;SDS011;75590;42.690;23.356;2024-01-30T00:21:48;7.45;;;3.30;;
85133;SDS011;75590;42.690;23.356;2024-01-30T00:24:13;6.18;;;3.05;;
85133;SDS011;75590;42.690;23.356;2024-01-30T00:26:39;5.28;;;3.42;;
85133;SDS011;75590;42.690;23.356;2024-01-30T00:29:04;4.85;;;2.58;;
85133;SDS011;75590;42.690;23.356;2024-01-30T00:31:30;3.08;;;2.67;;
85133;SDS011;75590;42.690;23.356;2024-01-30T00:33:55;4.13;;;2.75;;
85133;SDS011;75590;42.690;23.356;2024-01-30T00:36:21;5.75;;;3.35;;
85133;SDS011;75590;42.690;23.356;2024-01-30T00:38:46;3.47;;;2.65;;
85133;SDS011;75590;42.690;23.356;2024-01-30T00:41:12;5.10;;;3.58;;
85133;SDS011;75590;42.690;23.356;2024-01-30T00:43:38;3.47;;;2.55;;
85133;SDS011;75590;42.690;23.356;2024-01-30T00:46:03;7.80;;;3.63;;
85133;SDS011;75590;42.690;23.356;2024-01-30T00:48:29;5.15;;;3.38;;
85133;SDS011;75590;42.690;23.356;2024-01-30T00:50:54;5.03;;;2.80;;
85133;SDS011;75590;42.690;23.356;2024-01-30T00:53:20;5.03;;;2.70;;
85133;SDS011;75590;42.690;23.356;2024-01-30T00:55:45;6.07;;;3.78;;
85133;SDS011;75590;42.690;23.356;2024-01-30T00:58:11;6.45;;;3.28;;
85133;SDS011;75590;42.690;23.356;2024-01-30T01:00:36;6.20;;;4.03;;
85133;SDS011;75590;42.690;23.356;2024-01-30T01:03:02;6.18;;;3.22;;
85133;SDS011;75590;42.690;23.356;2024-01-30T01:05:28;7.05;;;2.85;;
85133;SDS011;75590;42.690;23.356;2024-01-30T01:07:53;4.95;;;2.78;;
85133;SDS011;75590;42.690;23.356;2024-01-30T01:10:19;5.20;;;3.15;;
85133;SDS011;75590;42.690;23.356;2024-01-30T01:12:44;8.52;;;3.83;;
85133;SDS011;75590;42.690;23.356;2024-01-30T01:15:11;4.45;;;3.22;;
85133;SDS011;75590;42.690;23.356;2024-01-30T01:17:36;7.55;;;3.63;;
85133;SDS011;75590;42.690;23.356;2024-01-30T01:22:31;4.20;;;3.05;;
85133;SDS011;75590;42.690;23.356;2024-01-30T01:24:57;6.88;;;4.13;;
85133;SDS011;75590;42.690;23.356;2024-01-30T01:27:22;5.75;;;3.58;;
85133;SDS011;75590;42.690;23.356;2024-01-30T01:29:48;6.53;;;3.63;;
85133;SDS011;75590;42.690;23.356;2024-01-30T01:32:13;6.78;;;4.40;;
85133;SDS011;75590;42.690;23.356;2024-01-30T01:34:39;6.22;;;4.43;;
85133;SDS011;75590;42.690;23.356;2024-01-30T01:37:04;6.68;;;3.90;;
85133;SDS011;75590;42.690;23.356;2024-01-30T01:39:30;6.18;;;4.03;;
85133;SDS011;75590;42.690;23.356;2024-01-30T01:41:56;6.05;;;3.10;;
85133;SDS011;75590;42.690;23.356;2024-01-30T01:44:22;6.53;;;4.57;;
85133;SDS011;75590;42.690;23.356;2024-01-30T01:46:47;4.18;;;3.13;;
85133;SDS011;75590;42.690;23.356;2024-01-30T01:49:13;4.75;;;2.13;;
85133;SDS011;75590;42.690;23.356;2024-01-30T01:51:39;6.10;;;3.95;;
85133;SDS011;75590;42.690;23.356;2024-01-30T01:54:06;4.70;;;3.13;;
85133;SDS011;75590;42.690;23.356;2024-01-30T01:56:32;4.90;;;3.67;;
85133;SDS011;75590;42.690;23.356;2024-01-30T01:59:00;6.68;;;2.40;;
85133;SDS011;75590;42.690;23.356;2024-01-30T02:01:30;9.65;;;4.07;;
85133;SDS011;75590;42.690;23.356;2024-01-30T02:03:56;6.22;;;3.47;;
85133;SDS011;75590;42.690;23.356;2024-01-30T02:06:21;5.75;;;2.88;;
85133;SDS011;75590;42.690;23.356;2024-01-30T02:08:48;4.65;;;3.00;;
85133;SDS011;75590;42.690;23.356;2024-01-30T02:11:13;5.50;;;3.45;;
85133;SDS011;75590;42.690;23.356;2024-01-30T02:13:38;6.57;;;4.28;;
85133;SDS011;75590;42.690;23.356;2024-01-30T02:16:06;5.50;;;3.28;;
85133;SDS011;75590;42.690;23.356;2024-01-30T02:18:31;4.38;;;2.83;;
85133;SDS011;75590;42.690;23.356;2024-01-30T02:20:57;3.80;;;2.90;;
85133;SDS011;75590;42.690;23.356;2024-01-30T02:23:26;3.58;;;2.55;;
85133;SDS011;75590;42.690;23.356;2024-01-30T02:25:52;5.13;;;2.83;;
85133;SDS011;75590;42.690;23.356;2024-01-30T02:28:18;5.57;;;3.08;;
85133;SDS011;75590;42.690;23.356;2024-01-30T02:30:44;3.72;;;2.50;;
85133;SDS011;75590;42.690;23.356;2024-01-30T02:33:12;3.65;;;2.55;;
85133;SDS011;75590;42.690;23.356;2024-01-30T02:35:38;3.35;;;3.05;;
85133;SDS011;75590;42.690;23.356;2024-01-30T02:38:03;5.80;;;2.83;;
85133;SDS011;75590;42.690;23.356;2024-01-30T02:40:30;4.53;;;2.58;;
85133;SDS011;75590;42.690;23.356;2024-01-30T02:42:56;3.33;;;2.47;;
85133;SDS011;75590;42.690;23.356;2024-01-30T02:45:22;5.22;;;2.15;;
85133;SDS011;75590;42.690;23.356;2024-01-30T02:47:48;4.05;;;2.70;;
85133;SDS011;75590;42.690;23.356;2024-01-30T02:50:13;4.15;;;2.67;;
85133;SDS011;75590;42.690;23.356;2024-01-30T02:52:40;3.25;;;2.78;;
85133;SDS011;75590;42.690;23.356;2024-01-30T02:55:06;3.90;;;2.65;;
85133;SDS011;75590;42.690;23.356;2024-01-30T02:57:31;4.30;;;2.60;;
85133;SDS011;75590;42.690;23.356;2024-01-30T02:59:57;3.13;;;2.45;;
85133;SDS011;75590;42.690;23.356;2024-01-30T03:02:22;7.22;;;3.10;;
85133;SDS011;75590;42.690;23.356;2024-01-30T03:04:48;2.83;;;1.55;;
85133;SDS011;75590;42.690;23.356;2024-01-30T03:07:13;3.50;;;2.72;;
85133;SDS011;75590;42.690;23.356;2024-01-30T03:09:40;3.08;;;2.75;;
85133;SDS011;75590;42.690;23.356;2024-01-30T03:12:06;3.85;;;2.40;;
85133;SDS011;75590;42.690;23.356;2024-01-30T03:14:32;4.18;;;2.75;;
85133;SDS011;75590;42.690;23.356;2024-01-30T03:16:57;3.78;;;2.92;;
85133;SDS011;75590;42.690;23.356;2024-01-30T03:19:23;3.67;;;2.83;;
85133;SDS011;75590;42.690;23.356;2024-01-30T03:21:49;3.75;;;2.70;;
85133;SDS011;75590;42.690;23.356;2024-01-30T03:24:15;4.43;;;2.30;;
85133;SDS011;75590;42.690;23.356;2024-01-30T03:26:40;4.70;;;2.75;;
85133;SDS011;75590;42.690;23.356;2024-01-30T03:29:06;2.60;;;2.10;;
85133;SDS011;75590;42.690;23.356;2024-01-30T03:31:31;2.40;;;2.20;;
85133;SDS011;75590;42.690;23.356;2024-01-30T03:33:57;4.32;;;2.03;;
85133;SDS011;75590;42.690;23.356;2024-01-30T03:36:23;3.22;;;2.45;;
85133;SDS011;75590;42.690;23.356;2024-01-30T03:38:48;3.15;;;1.50;;
85133;SDS011;75590;42.690;23.356;2024-01-30T03:41:14;2.67;;;1.55;;
85133;SDS011;75590;42.690;23.356;2024-01-30T03:43:39;4.47;;;3.10;;
85133;SDS011;75590;42.690;23.356;2024-01-30T03:46:05;3.58;;;2.70;;
85133;SDS011;75590;42.690;23.356;2024-01-30T03:48:31;1.70;;;1.55;;
85133;SDS011;75590;42.690;23.356;2024-01-30T03:50:56;3.30;;;2.47;;
85133;SDS011;75590;42.690;23.356;2024-01-30T03:53:22;2.38;;;1.88;;
85133;SDS011;75590;42.690;23.356;2024-01-30T03:55:47;2.15;;;2.00;;
85133;SDS011;75590;42.690;23.356;2024-01-30T03:58:13;3.65;;;2.25;;
85133;SDS011;75590;42.690;23.356;2024-01-30T04:00:38;2.85;;;2.20;;
85133;SDS011;75590;42.690;23.356;2024-01-30T04:03:04;3.38;;;1.83;;
85133;SDS011;75590;42.690;23.356;2024-01-30T04:05:30;4.20;;;2.28;;
85133;SDS011;75590;42.690;23.356;2024-01-30T04:07:55;3.13;;;1.92;;
85133;SDS011;75590;42.690;23.356;2024-01-30T04:10:21;3.72;;;1.80;;
85133;SDS011;75590;42.690;23.356;2024-01-30T04:12:46;6.38;;;2.45;;
85133;SDS011;75590;42.690;23.356;2024-01-30T04:15:12;5.10;;;3.40;;
85133;SDS011;75590;42.690;23.356;2024-01-30T04:17:39;3.03;;;2.75;;
85133;SDS011;75590;42.690;23.356;2024-01-30T04:20:05;3.83;;;2.58;;
85133;SDS011;75590;42.690;23.356;2024-01-30T04:22:31;3.78;;;2.38;;
85133;SDS011;75590;42.690;23.356;2024-01-30T04:24:56;5.07;;;3.13;;
85133;SDS011;75590;42.690;23.356;2024-01-30T04:27:22;4.07;;;2.42;;
85133;SDS011;75590;42.690;23.356;2024-01-30T04:29:47;4.45;;;3.28;;
85133;SDS011;75590;42.690;23.356;2024-01-30T04:32:13;5.47;;;3.15;;
85133;SDS011;75590;42.690;23.356;2024-01-30T04:34:38;5.40;;;3.72;;
85133;SDS011;75590;42.690;23.356;2024-01-30T04:37:04;5.13;;;3.55;;
85133;SDS011;75590;42.690;23.356;2024-01-30T04:39:30;4.93;;;3.25;;
85133;SDS011;75590;42.690;23.356;2024-01-30T04:41:55;4.75;;;3.15;;
85133;SDS011;75590;42.690;23.356;2024-01-30T04:44:21;5.40;;;4.03;;
85133;SDS011;75590;42.690;23.356;2024-01-30T04:46:46;7.53;;;3.75;;
85133;SDS011;75590;42.690;23.356;2024-01-30T04:49:12;5.30;;;3.58;;
85133;SDS011;75590;42.690;23.356;2024-01-30T04:51:37;6.47;;;3.20;;
85133;SDS011;75590;42.690;23.356;2024-01-30T04:54:03;6.32;;;3.40;;
85133;SDS011;75590;42.690;23.356;2024-01-30T04:56:28;3.92;;;2.53;;
85133;SDS011;75590;42.690;23.356;2024-01-30T04:58:54;2.53;;;2.33;;
85133;SDS011;75590;42.690;23.356;2024-01-30T05:01:19;5.70;;;3.05;;
85133;SDS011;75590;42.690;23.356;2024-01-30T05:03:45;5.03;;;2.92;;
85133;SDS011;75590;42.690;23.356;2024-01-30T05:06:10;7.63;;;3.88;;
85133;SDS011;75590;42.690;23.356;2024-01-30T05:08:36;4.97;;;2.78;;
85133;SDS011;75590;42.690;23.356;2024-01-30T05:11:02;6.25;;;3.97;;
85133;SDS011;75590;42.690;23.356;2024-01-30T05:13:31;7.47;;;3.63;;
85133;SDS011;75590;42.690;23.356;2024-01-30T05:15:57;5.15;;;3.90;;
85133;SDS011;75590;42.690;23.356;2024-01-30T05:18:22;7.60;;;3.63;;
85133;SDS011;75590;42.690;23.356;2024-01-30T05:20:49;9.63;;;4.22;;
85133;SDS011;75590;42.690;23.356;2024-01-30T05:23:15;6.28;;;3.20;;
85133;SDS011;75590;42.690;23.356;2024-01-30T05:25:41;8.73;;;3.85;;
85133;SDS011;75590;42.690;23.356;2024-01-30T05:28:06;11.40;;;4.72;;
85133;SDS011;75590;42.690;23.356;2024-01-30T05:30:32;8.07;;;3.40;;
85133;SDS011;75590;42.690;23.356;2024-01-30T05:32:57;7.47;;;4.32;;
85133;SDS011;75590;42.690;23.356;2024-01-30T05:35:22;6.18;;;3.40;;
85133;SDS011;75590;42.690;23.356;2024-01-30T05:37:48;7.65;;;4.53;;
85133;SDS011;75590;42.690;23.356;2024-01-30T05:40:15;4.50;;;2.45;;
85133;SDS011;75590;42.690;23.356;2024-01-30T05:42:40;5.93;;;3.20;;
85133;SDS011;75590;42.690;23.356;2024-01-30T05:45:06;6.05;;;4.03;;
85133;SDS011;75590;42.690;23.356;2024-01-30T05:47:33;9.25;;;3.08;;
85133;SDS011;75590;42.690;23.356;2024-01-30T05:49:59;6.53;;;4.03;;
85133;SDS011;75590;42.690;23.356;2024-01-30T05:52:25;7.10;;;3.63;;
85133;SDS011;75590;42.690;23.356;2024-01-30T05:54:50;6.82;;;4.95;;
85133;SDS011;75590;42.690;23.356;2024-01-30T05:57:16;6.65;;;3.83;;
85133;SDS011;75590;42.690;23.356;2024-01-30T05:59:42;6.35;;;2.95;;
85133;SDS011;75590;42.690;23.356;2024-01-30T06:02:10;5.57;;;4.60;;
85133;SDS011;75590;42.690;23.356;2024-01-30T06:04:36;6.97;;;4.50;;
85133;SDS011;75590;42.690;23.356;2024-01-30T06:07:02;7.97;;;3.90;;
85133;SDS011;75590;42.690;23.356;2024-01-30T06:09:28;30.27;;;14.98;;
85133;SDS011;75590;42.690;23.356;2024-01-30T06:11:56;29.42;;;16.50;;
85133;SDS011;75590;42.690;23.356;2024-01-30T06:14:22;29.65;;;15.63;;
85133;SDS011;75590;42.690;23.356;2024-01-30T06:16:48;10.13;;;6.18;;
85133;SDS011;75590;42.690;23.356;2024-01-30T06:19:13;11.07;;;5.63;;
85133;SDS011;75590;42.690;23.356;2024-01-30T06:21:39;9.93;;;6.53;;
85133;SDS011;75590;42.690;23.356;2024-01-30T06:24:04;9.73;;;5.38;;
85133;SDS011;75590;42.690;23.356;2024-01-30T06:26:30;12.20;;;7.95;;
85133;SDS011;75590;42.690;23.356;2024-01-30T06:28:56;35.05;;;31.38;;
85133;SDS011;75590;42.690;23.356;2024-01-30T06:31:21;8.82;;;6.63;;
85133;SDS011;75590;42.690;23.356;2024-01-30T06:33:47;10.63;;;6.95;;
85133;SDS011;75590;42.690;23.356;2024-01-30T06:36:13;12.23;;;6.90;;
85133;SDS011;75590;42.690;23.356;2024-01-30T06:38:39;8.45;;;6.43;;
85133;SDS011;75590;42.690;23.356;2024-01-30T06:41:05;8.88;;;4.50;;
85133;SDS011;75590;42.690;23.356;2024-01-30T06:43:31;4.97;;;3.50;;
85133;SDS011;75590;42.690;23.356;2024-01-30T06:45:57;11.40;;;4.60;;
85133;SDS011;75590;42.690;23.356;2024-01-30T06:48:22;8.90;;;5.82;;
85133;SDS011;75590;42.690;23.356;2024-01-30T06:50:48;10.50;;;7.72;;
85133;SDS011;75590;42.690;23.356;2024-01-30T06:53:14;12.00;;;5.72;;
85133;SDS011;75590;42.690;23.356;2024-01-30T06:55:40;11.02;;;6.75;;
85133;SDS011;75590;42.690;23.356;2024-01-30T06:58:05;17.00;;;8.00;;
85133;SDS011;75590;42.690;23.356;2024-01-30T07:00:31;9.15;;;5.93;;
85133;SDS011;75590;42.690;23.356;2024-01-30T07:02:57;9.55;;;5.45;;
85133;SDS011;75590;42.690;23.356;2024-01-30T07:05:22;9.82;;;6.85;;
85133;SDS011;75590;42.690;23.356;2024-01-30T07:07:48;10.25;;;6.40;;
85133;SDS011;75590;42.690;23.356;2024-01-30T07:10:13;9.70;;;6.05;;
85133;SDS011;75590;42.690;23.356;2024-01-30T07:12:39;8.95;;;5.82;;
85133;SDS011;75590;42.690;23.356;2024-01-30T07:15:05;3.63;;;3.33;;
85133;SDS011;75590;42.690;23.356;2024-01-30T07:19:59;4.95;;;3.45;;
85133;SDS011;75590;42.690;23.356;2024-01-30T07:22:24;4.82;;;3.90;;
85133;SDS011;75590;42.690;23.356;2024-01-30T07:24:50;6.60;;;4.60;;
85133;SDS011;75590;42.690;23.356;2024-01-30T07:27:17;8.25;;;5.32;;
85133;SDS011;75590;42.690;23.356;2024-01-30T07:29:43;5.18;;;3.90;;
85133;SDS011;75590;42.690;23.356;2024-01-30T07:32:09;5.78;;;4.05;;
85133;SDS011;75590;42.690;23.356;2024-01-30T07:34:34;6.25;;;4.18;;
85133;SDS011;75590;42.690;23.356;2024-01-30T07:37:01;5.13;;;3.97;;
85133;SDS011;75590;42.690;23.356;2024-01-30T07:39:27;6.30;;;4.72;;
85133;SDS011;75590;42.690;23.356;2024-01-30T07:41:53;4.25;;;3.30;;
85133;SDS011;75590;42.690;23.356;2024-01-30T07:44:19;3.58;;;3.28;;
85133;SDS011;75590;42.690;23.356;2024-01-30T07:46:46;4.88;;;3.22;;
85133;SDS011;75590;42.690;23.356;2024-01-30T07:49:11;4.13;;;2.95;;
85133;SDS011;75590;42.690;23.356;2024-01-30T07:51:39;3.72;;;2.63;;
85133;SDS011;75590;42.690;23.356;2024-01-30T07:54:05;5.53;;;3.45;;
85133;SDS011;75590;42.690;23.356;2024-01-30T07:56:31;7.15;;;3.05;;
85133;SDS011;75590;42.690;23.356;2024-01-30T07:58:57;3.75;;;3.45;;
85133;SDS011;75590;42.690;23.356;2024-01-30T08:01:22;3.47;;;3.17;;
85133;SDS011;75590;42.690;23.356;2024-01-30T08:03:48;3.38;;;3.05;;
85133;SDS011;75590;42.690;23.356;2024-01-30T08:06:15;4.30;;;3.42;;
85133;SDS011;75590;42.690;23.356;2024-01-30T08:08:40;4.05;;;3.08;;
85133;SDS011;75590;42.690;23.356;2024-01-30T08:11:06;3.28;;;2.90;;
85133;SDS011;75590;42.690;23.356;2024-01-30T08:13:32;5.07;;;3.10;;
85133;SDS011;75590;42.690;23.356;2024-01-30T08:15:58;3.60;;;3.00;;
85133;SDS011;75590;42.690;23.356;2024-01-30T08:18:27;6.95;;;3.67;;
85133;SDS011;75590;42.690;23.356;2024-01-30T08:20:52;4.90;;;3.42;;
85133;SDS011;75590;42.690;23.356;2024-01-30T08:23:18;3.75;;;2.97;;
85133;SDS011;75590;42.690;23.356;2024-01-30T08:25:44;4.32;;;2.75;;
85133;SDS011;75590;42.690;23.356;2024-01-30T08:28:19;5.10;;;2.97;;
85133;SDS011;75590;42.690;23.356;2024-01-30T08:30:45;3.55;;;3.20;;
85133;SDS011;75590;42.690;23.356;2024-01-30T08:33:10;3.67;;;2.92;;
85133;SDS011;75590;42.690;23.356;2024-01-30T08:35:35;4.45;;;3.72;;
85133;SDS011;75590;42.690;23.356;2024-01-30T08:38:01;6.25;;;3.72;;
85133;SDS011;75590;42.690;23.356;2024-01-30T08:40:28;5.80;;;3.05;;
85133;SDS011;75590;42.690;23.356;2024-01-30T08:42:54;5.90;;;3.65;;
85133;SDS011;75590;42.690;23.356;2024-01-30T08:45:20;5.70;;;4.05;;
85133;SDS011;75590;42.690;23.356;2024-01-30T08:47:45;5.80;;;3.95;;
85133;SDS011;75590;42.690;23.356;2024-01-30T08:50:11;5.53;;;2.75;;
85133;SDS011;75590;42.690;23.356;2024-01-30T08:52:36;4.95;;;3.20;;
85133;SDS011;75590;42.690;23.356;2024-01-30T08:55:02;3.65;;;2.75;;
85133;SDS011;75590;42.690;23.356;2024-01-30T08:57:28;3.83;;;2.95;;
85133;SDS011;75590;42.690;23.356;2024-01-30T08:59:54;4.88;;;3.95;;
85133;SDS011;75590;42.690;23.356;2024-01-30T09:02:20;4.88;;;3.47;;
85133;SDS011;75590;42.690;23.356;2024-01-30T09:04:46;4.10;;;3.30;;
85133;SDS011;75590;42.690;23.356;2024-01-30T09:07:11;4.13;;;2.92;;
85133;SDS011;75590;42.690;23.356;2024-01-30T09:09:38;4.30;;;3.90;;
85133;SDS011;75590;42.690;23.356;2024-01-30T09:12:06;4.32;;;3.67;;
85133;SDS011;75590;42.690;23.356;2024-01-30T09:14:34;4.47;;;3.28;;
85133;SDS011;75590;42.690;23.356;2024-01-30T09:17:00;5.63;;;4.57;;
85133;SDS011;75590;42.690;23.356;2024-01-30T09:19:26;4.53;;;3.90;;
85133;SDS011;75590;42.690;23.356;2024-01-30T09:21:51;5.10;;;3.88;;
85133;SDS011;75590;42.690;23.356;2024-01-30T09:24:17;4.90;;;2.85;;
85133;SDS011;75590;42.690;23.356;2024-01-30T09:26:42;3.25;;;2.95;;
85133;SDS011;75590;42.690;23.356;2024-01-30T09:29:08;4.00;;;3.47;;
85133;SDS011;75590;42.690;23.356;2024-01-30T09:31:33;4.97;;;2.83;;
85133;SDS011;75590;42.690;23.356;2024-01-30T09:33:59;3.13;;;2.75;;
85133;SDS011;75590;42.690;23.356;2024-01-30T09:36:24;3.25;;;1.88;;
85133;SDS011;75590;42.690;23.356;2024-01-30T09:38:50;4.22;;;3.13;;
85133;SDS011;75590;42.690;23.356;2024-01-30T09:41:16;3.80;;;2.60;;
85133;SDS011;75590;42.690;23.356;2024-01-30T09:43:43;4.95;;;3.10;;
85133;SDS011;75590;42.690;23.356;2024-01-30T09:46:13;4.50;;;2.63;;
85133;SDS011;75590;42.690;23.356;2024-01-30T09:48:41;4.65;;;2.60;;
85133;SDS011;75590;42.690;23.356;2024-01-30T09:51:08;4.38;;;1.80;;
85133;SDS011;75590;42.690;23.356;2024-01-30T09:53:34;3.58;;;3.28;;
85133;SDS011;75590;42.690;23.356;2024-01-30T09:55:59;3.13;;;2.00;;
85133;SDS011;75590;42.690;23.356;2024-01-30T09:58:26;3.83;;;3.15;;
85133;SDS011;75590;42.690;23.356;2024-01-30T10:00:51;2.50;;;1.65;;
85133;SDS011;75590;42.690;23.356;2024-01-30T10:03:18;4.60;;;3.45;;
85133;SDS011;75590;42.690;23.356;2024-01-30T10:05:46;2.47;;;2.28;;
85133;SDS011;75590;42.690;23.356;2024-01-30T10:08:17;6.18;;;3.85;;
85133;SDS011;75590;42.690;23.356;2024-01-30T10:10:47;2.70;;;2.42;;
85133;SDS011;75590;42.690;23.356;2024-01-30T10:13:13;3.10;;;2.75;;
85133;SDS011;75590;42.690;23.356;2024-01-30T10:15:38;4.03;;;2.80;;
85133;SDS011;75590;42.690;23.356;2024-01-30T10:18:05;4.15;;;3.00;;
85133;SDS011;75590;42.690;23.356;2024-01-30T10:20:34;3.35;;;2.88;;
85133;SDS011;75590;42.690;23.356;2024-01-30T10:23:00;4.82;;;2.35;;
85133;SDS011;75590;42.690;23.356;2024-01-30T10:25:26;4.35;;;2.53;;
85133;SDS011;75590;42.690;23.356;2024-01-30T10:27:55;2.63;;;2.30;;
85133;SDS011;75590;42.690;23.356;2024-01-30T10:30:21;3.28;;;3.03;;
85133;SDS011;75590;42.690;23.356;2024-01-30T10:32:47;4.97;;;2.78;;
85133;SDS011;75590;42.690;23.356;2024-01-30T10:35:13;6.60;;;2.08;;
85133;SDS011;75590;42.690;23.356;2024-01-30T10:37:38;3.05;;;2.75;;
85133;SDS011;75590;42.690;23.356;2024-01-30T10:40:04;4.28;;;3.05;;
85133;SDS011;75590;42.690;23.356;2024-01-30T10:42:33;2.42;;;2.22;;
85133;SDS011;75590;42.690;23.356;2024-01-30T10:45:08;4.35;;;2.47;;
85133;SDS011;75590;42.690;23.356;2024-01-30T10:47:35;2.10;;;1.88;;
85133;SDS011;75590;42.690;23.356;2024-01-30T10:50:04;3.17;;;2.45;;
85133;SDS011;75590;42.690;23.356;2024-01-30T10:52:31;2.65;;;1.92;;
85133;SDS011;75590;42.690;23.356;2024-01-30T10:54:58;2.53;;;2.22;;
85133;SDS011;75590;42.690;23.356;2024-01-30T10:57:24;4.30;;;2.20;;
85133;SDS011;75590;42.690;23.356;2024-01-30T10:59:51;5.07;;;3.10;;
85133;SDS011;75590;42.690;23.356;2024-01-30T11:02:18;2.97;;;2.15;;
85133;SDS011;75590;42.690;23.356;2024-01-30T11:04:44;2.47;;;2.35;;
85133;SDS011;75590;42.690;23.356;2024-01-30T11:07:17;3.00;;;1.83;;
85133;SDS011;75590;42.690;23.356;2024-01-30T11:09:50;1.42;;;1.33;;
85133;SDS011;75590;42.690;23.356;2024-01-30T11:12:21;3.17;;;2.72;;
85133;SDS011;75590;42.690;23.356;2024-01-30T11:14:48;1.45;;;1.35;;
85133;SDS011;75590;42.690;23.356;2024-01-30T11:17:15;3.53;;;2.25;;
85133;SDS011;75590;42.690;23.356;2024-01-30T11:19:41;3.10;;;2.63;;
85133;SDS011;75590;42.690;23.356;2024-01-30T11:22:07;2.38;;;2.17;;
85133;SDS011;75590;42.690;23.356;2024-01-30T11:24:39;2.42;;;2.10;;
85133;SDS011;75590;42.690;23.356;2024-01-30T11:27:08;2.50;;;2.30;;
85133;SDS011;75590;42.690;23.356;2024-01-30T11:29:35;2.42;;;1.77;;
85133;SDS011;75590;42.690;23.356;2024-01-30T11:32:01;2.50;;;2.30;;
85133;SDS011;75590;42.690;23.356;2024-01-30T11:34:27;3.85;;;2.38;;
85133;SDS011;75590;42.690;23.356;2024-01-30T11:37:02;3.20;;;1.63;;
85133;SDS011;75590;42.690;23.356;2024-01-30T11:39:29;1.60;;;1.00;;
85133;SDS011;75590;42.690;23.356;2024-01-30T11:41:55;2.08;;;1.63;;
85133;SDS011;75590;42.690;23.356;2024-01-30T11:44:22;4.93;;;3.28;;
85133;SDS011;75590;42.690;23.356;2024-01-30T11:46:48;1.88;;;1.60;;
85133;SDS011;75590;42.690;23.356;2024-01-30T11:49:14;4.22;;;2.28;;
85133;SDS011;75590;42.690;23.356;2024-01-30T11:51:40;3.17;;;1.13;;
85133;SDS011;75590;42.690;23.356;2024-01-30T11:54:07;2.28;;;1.95;;
85133;SDS011;75590;42.690;23.356;2024-01-30T11:56:32;3.72;;;2.25;;
85133;SDS011;75590;42.690;23.356;2024-01-30T11:58:58;2.88;;;2.42;;
85133;SDS011;75590;42.690;23.356;2024-01-30T12:01:25;2.58;;;1.73;;
85133;SDS011;75590;42.690;23.356;2024-01-30T12:03:51;3.08;;;2.60;;
85133;SDS011;75590;42.690;23.356;2024-01-30T12:06:17;3.17;;;2.63;;
85133;SDS011;75590;42.690;23.356;2024-01-30T12:08:43;4.88;;;2.80;;
85133;SDS011;75590;42.690;23.356;2024-01-30T12:11:26;4.25;;;2.95;;
85133;SDS011;75590;42.690;23.356;2024-01-30T12:13:53;3.92;;;3.15;;
85133;SDS011;75590;42.690;23.356;2024-01-30T12:16:19;4.28;;;2.72;;
85133;SDS011;75590;42.690;23.356;2024-01-30T12:18:47;3.10;;;1.45;;
85133;SDS011;75590;42.690;23.356;2024-01-30T12:21:16;2.42;;;2.15;;
85133;SDS011;75590;42.690;23.356;2024-01-30T12:23:43;4.82;;;2.55;;
85133;SDS011;75590;42.690;23.356;2024-01-30T12:26:08;3.17;;;2.63;;
85133;SDS011;75590;42.690;23.356;2024-01-30T12:28:36;3.33;;;2.60;;
85133;SDS011;75590;42.690;23.356;2024-01-30T12:31:03;3.65;;;2.95;;
85133;SDS011;75590;42.690;23.356;2024-01-30T12:33:29;5.53;;;3.25;;
85133;SDS011;75590;42.690;23.356;2024-01-30T12:36:01;3.35;;;2.42;;
85133;SDS011;75590;42.690;23.356;2024-01-30T12:38:27;6.40;;;2.83;;
85133;SDS011;75590;42.690;23.356;2024-01-30T12:40:55;3.45;;;2.63;;
85133;SDS011;75590;42.690;23.356;2024-01-30T12:43:25;2.88;;;2.58;;
85133;SDS011;75590;42.690;23.356;2024-01-30T12:45:54;3.03;;;2.17;;
85133;SDS011;75590;42.690;23.356;2024-01-30T12:48:20;3.63;;;2.45;;
85133;SDS011;75590;42.690;23.356;2024-01-30T12:50:45;3.88;;;2.40;;
85133;SDS011;75590;42.690;23.356;2024-01-30T12:53:11;4.72;;;2.60;;
85133;SDS011;75590;42.690;23.356;2024-01-30T12:55:37;3.60;;;2.38;;
85133;SDS011;75590;42.690;23.356;2024-01-30T12:58:03;2.90;;;2.47;;
85133;SDS011;75590;42.690;23.356;2024-01-30T13:00:29;4.80;;;2.05;;
85133;SDS011;75590;42.690;23.356;2024-01-30T13:02:54;4.00;;;3.03;;
85133;SDS011;75590;42.690;23.356;2024-01-30T13:05:20;5.40;;;2.55;;
85133;SDS011;75590;42.690;23.356;2024-01-30T13:07:46;4.18;;;2.65;;
85133;SDS011;75590;42.690;23.356;2024-01-30T13:10:11;4.80;;;3.00;;
85133;SDS011;75590;42.690;23.356;2024-01-30T13:12:37;3.78;;;2.20;;
85133;SDS011;75590;42.690;23.356;2024-01-30T13:15:03;7.68;;;3.17;;
85133;SDS011;75590;42.690;23.356;2024-01-30T13:17:30;5.63;;;2.97;;
85133;SDS011;75590;42.690;23.356;2024-01-30T13:19:56;4.25;;;3.25;;
85133;SDS011;75590;42.690;23.356;2024-01-30T13:22:22;4.65;;;2.75;;
85133;SDS011;75590;42.690;23.356;2024-01-30T13:24:47;4.85;;;3.08;;
85133;SDS011;75590;42.690;23.356;2024-01-30T13:27:13;3.28;;;2.17;;
85133;SDS011;75590;42.690;23.356;2024-01-30T13:29:38;3.53;;;2.55;;
85133;SDS011;75590;42.690;23.356;2024-01-30T13:32:04;4.82;;;3.20;;
85133;SDS011;75590;42.690;23.356;2024-01-30T13:34:30;5.65;;;3.30;;
85133;SDS011;75590;42.690;23.356;2024-01-30T13:36:55;6.00;;;2.72;;
85133;SDS011;75590;42.690;23.356;2024-01-30T13:39:21;3.25;;;2.63;;
85133;SDS011;75590;42.690;23.356;2024-01-30T13:41:47;7.68;;;2.67;;
85133;SDS011;75590;42.690;23.356;2024-01-30T13:44:13;4.55;;;3.35;;
85133;SDS011;75590;42.690;23.356;2024-01-30T13:46:39;3.50;;;1.95;;
85133;SDS011;75590;42.690;23.356;2024-01-30T13:49:04;4.18;;;2.60;;
85133;SDS011;75590;42.690;23.356;2024-01-30T13:51:32;3.88;;;3.15;;
85133;SDS011;75590;42.690;23.356;2024-01-30T13:53:58;2.35;;;2.17;;
85133;SDS011;75590;42.690;23.356;2024-01-30T13:56:23;4.45;;;2.45;;
85133;SDS011;75590;42.690;23.356;2024-01-30T13:58:49;4.80;;;2.47;;
85133;SDS011;75590;42.690;23.356;2024-01-30T14:01:15;5.93;;;3.40;;
85133;SDS011;75590;42.690;23.356;2024-01-30T14:03:41;2.92;;;2.63;;
85133;SDS011;75590;42.690;23.356;2024-01-30T14:06:07;3.47;;;2.38;;
85133;SDS011;75590;42.690;23.356;2024-01-30T14:08:32;5.57;;;2.83;;
85133;SDS011;75590;42.690;23.356;2024-01-30T14:10:58;3.67;;;3.10;;
85133;SDS011;75590;42.690;23.356;2024-01-30T14:13:23;4.65;;;2.35;;
85133;SDS011;75590;42.690;23.356;2024-01-30T14:15:50;4.82;;;2.58;;
85133;SDS011;75590;42.690;23.356;2024-01-30T14:18:16;3.88;;;2.47;;
85133;SDS011;75590;42.690;23.356;2024-01-30T14:20:42;4.53;;;3.20;;
85133;SDS011;75590;42.690;23.356;2024-01-30T14:23:07;3.47;;;2.70;;
85133;SDS011;75590;42.690;23.356;2024-01-30T14:25:33;9.50;;;2.45;;
85133;SDS011;75590;42.690;23.356;2024-01-30T14:27:58;4.10;;;2.25;;
85133;SDS011;75590;42.690;23.356;2024-01-30T14:30:24;6.47;;;2.42;;
85133;SDS011;75590;42.690;23.356;2024-01-30T14:32:49;4.55;;;3.67;;